Time;durP1;ratioP1;P1;durP2;ratioP2;P2;SDS_P1;SDS_P2;PMS_P1;PMS_P2;Temp;Humidity;BMP_temperature;BMP_pressure;BME280_temperature;BME280_humidity;BME280_pressure;Samples;Min_cycle;Max_cycle;Signal;HPM_P1;HPM_P2
2023/01/05 00:01:39;;;;;;;27.27;4.43;;;;;;;;;;5057520;28;20058;-74
2023/01/05 00:04:06;;;;;;;30.58;4.72;;;;;;;;;;5058413;28;20078;-74
2023/01/05 00:06:32;;;;;;;29.88;5.03;;;;;;;;;;5045306;28;20045;-74
2023/01/05 00:08:58;;;;;;;36.08;5.07;;;;;;;;;;5072271;28;20603;-74
2023/01/05 00:22:33;;;;;;;37.28;4.85;;;;;;;;;;5060021;28;20072;-74
2023/01/05 00:25:05;;;;;;;36.63;5.00;;;;;;;;;;5068698;28;21474;-74
2023/01/05 00:27:32;;;;;;;42.22;5.45;;;;;;;;;;5066172;28;20059;-75
2023/01/05 00:29:58;;;;;;;31.67;4.38;;;;;;;;;;5054940;28;20130;-74
2023/01/05 00:32:25;;;;;;;30.17;5.03;;;;;;;;;;5040383;28;20044;-75
2023/01/05 00:34:54;;;;;;;36.78;5.47;;;;;;;;;;5056279;28;20539;-74
2023/01/05 00:37:20;;;;;;;44.75;5.65;;;;;;;;;;5058103;28;20044;-74
2023/01/05 00:39:47;;;;;;;30.55;4.38;;;;;;;;;;5055216;28;20684;-74
2023/01/05 00:42:14;;;;;;;37.35;5.38;;;;;;;;;;5054951;28;20058;-75
2023/01/05 00:44:40;;;;;;;40.92;6.80;;;;;;;;;;5053243;28;20052;-74
2023/01/05 00:47:06;;;;;;;33.20;5.00;;;;;;;;;;5059599;28;20628;-75
2023/01/05 00:49:32;;;;;;;31.98;5.35;;;;;;;;;;5054187;28;20048;-75
2023/01/05 00:51:58;;;;;;;31.27;5.38;;;;;;;;;;5055418;28;20040;-75
2023/01/05 00:54:24;;;;;;;36.80;6.28;;;;;;;;;;5056611;28;20085;-76
2023/01/05 00:56:50;;;;;;;27.83;4.82;;;;;;;;;;5057855;28;20366;-75
2023/01/05 00:59:17;;;;;;;31.25;4.97;;;;;;;;;;5036667;28;20052;-75
2023/01/05 01:01:47;;;;;;;29.02;5.63;;;;;;;;;;5040667;28;20130;-75
2023/01/05 01:04:13;;;;;;;34.70;5.35;;;;;;;;;;5026871;28;20056;-75
2023/01/05 01:06:40;;;;;;;34.88;5.82;;;;;;;;;;5037908;28;20052;-75
2023/01/05 01:09:06;;;;;;;28.75;4.93;;;;;;;;;;5056596;28;20123;-75
2023/01/05 01:11:32;;;;;;;37.92;5.72;;;;;;;;;;5038346;28;20040;-75
2023/01/05 01:13:58;;;;;;;30.75;5.10;;;;;;;;;;5035618;28;20186;-75
2023/01/05 01:16:24;;;;;;;24.88;4.82;;;;;;;;;;5037282;28;20041;-75
2023/01/05 01:18:50;;;;;;;30.15;4.95;;;;;;;;;;5037886;28;20036;-75
2023/01/05 01:21:17;;;;;;;47.83;5.38;;;;;;;;;;5042288;28;20404;-74
2023/01/05 01:23:44;;;;;;;46.45;7.10;;;;;;;;;;5038038;28;20102;-74
2023/01/05 01:26:13;;;;;;;31.40;4.72;;;;;;;;;;5056131;28;20177;-74
2023/01/05 01:28:39;;;;;;;30.77;5.38;;;;;;;;;;5025432;28;20422;-74
2023/01/05 01:31:06;;;;;;;39.78;5.22;;;;;;;;;;5036229;28;20052;-74
2023/01/05 01:33:32;;;;;;;44.28;6.25;;;;;;;;;;5039220;28;20040;-74
2023/01/05 01:35:59;;;;;;;44.65;5.40;;;;;;;;;;5036154;28;20066;-74
2023/01/05 01:38:25;;;;;;;35.20;6.10;;;;;;;;;;5039424;28;20041;-74
2023/01/05 01:40:51;;;;;;;41.83;6.97;;;;;;;;;;5036748;28;20054;-74
2023/01/05 01:43:18;;;;;;;40.20;7.13;;;;;;;;;;5034515;28;20044;-73
2023/01/05 01:45:45;;;;;;;40.25;6.50;;;;;;;;;;5054055;28;20044;-74
2023/01/05 01:48:12;;;;;;;37.00;4.97;;;;;;;;;;5035809;28;20036;-74
2023/01/05 01:50:40;;;;;;;31.38;4.63;;;;;;;;;;5037059;28;21706;-74
2023/01/05 01:53:27;;;;;;;31.75;6.07;;;;;;;;;;5035135;28;20139;-74
2023/01/05 01:55:54;;;;;;;32.33;5.43;;;;;;;;;;5036713;28;20167;-74
2023/01/05 01:58:23;;;;;;;43.00;5.65;;;;;;;;;;5021977;28;20047;-74
2023/01/05 02:00:49;;;;;;;37.10;4.75;;;;;;;;;;5056135;28;20041;-74
2023/01/05 02:03:15;;;;;;;25.35;4.57;;;;;;;;;;5042220;28;22289;-75
2023/01/05 02:05:41;;;;;;;36.83;4.90;;;;;;;;;;5064035;28;20060;-74
2023/01/05 02:08:13;;;;;;;50.38;6.93;;;;;;;;;;5034255;28;20131;-74
2023/01/05 02:10:42;;;;;;;28.73;5.13;;;;;;;;;;5071270;28;20048;-74
2023/01/05 02:13:11;;;;;;;35.58;5.22;;;;;;;;;;5050233;28;20055;-75
2023/01/05 02:15:44;;;;;;;40.28;5.15;;;;;;;;;;5053918;28;20040;-74
2023/01/05 02:18:16;;;;;;;23.67;5.40;;;;;;;;;;5035882;28;20048;-75
2023/01/05 02:20:42;;;;;;;26.13;4.03;;;;;;;;;;5036176;28;20040;-74
2023/01/05 02:23:38;;;;;;;25.88;4.40;;;;;;;;;;5036946;28;20036;-74
2023/01/05 02:26:19;;;;;;;30.95;5.05;;;;;;;;;;5034685;28;20070;-74
2023/01/05 02:28:48;;;;;;;30.30;5.15;;;;;;;;;;5037219;28;20044;-74
2023/01/05 02:31:17;;;;;;;32.05;5.20;;;;;;;;;;5037337;28;20178;-74
2023/01/05 02:33:55;;;;;;;38.03;5.65;;;;;;;;;;5035032;28;21669;-74
2023/01/05 02:36:29;;;;;;;43.55;5.53;;;;;;;;;;5035897;28;20593;-74
2023/01/05 02:38:55;;;;;;;29.50;5.50;;;;;;;;;;5038350;28;20036;-74
2023/01/05 02:41:31;;;;;;;30.25;4.60;;;;;;;;;;5038031;28;20052;-74
2023/01/05 02:43:58;;;;;;;25.90;4.15;;;;;;;;;;5039013;28;20058;-74
2023/01/05 02:46:24;;;;;;;27.38;4.35;;;;;;;;;;5037140;28;20044;-74
2023/01/05 02:48:51;;;;;;;28.70;4.07;;;;;;;;;;5034290;28;20143;-74
2023/01/05 02:51:26;;;;;;;35.80;5.38;;;;;;;;;;5053710;28;20040;-74
2023/01/05 02:54:22;;;;;;;26.05;4.82;;;;;;;;;;5035491;28;20053;-74
2023/01/05 02:57:08;;;;;;;37.47;4.65;;;;;;;;;;5019143;28;20674;-74
2023/01/05 02:59:36;;;;;;;26.50;4.20;;;;;;;;;;5037365;28;21630;-74
2023/01/05 03:02:07;;;;;;;33.00;5.10;;;;;;;;;;5053647;28;20709;-74
2023/01/05 03:04:38;;;;;;;31.48;4.13;;;;;;;;;;5035346;28;20047;-74
2023/01/05 03:07:11;;;;;;;28.73;5.60;;;;;;;;;;5051955;28;20403;-73
2023/01/05 03:09:39;;;;;;;39.22;5.60;;;;;;;;;;5054497;28;20047;-74
2023/01/05 03:14:59;;;;;;;41.70;6.00;;;;;;;;;;5036675;28;22697;-74
2023/01/05 03:17:28;;;;;;;34.33;5.10;;;;;;;;;;5034682;28;20040;-74
2023/01/05 03:19:56;;;;;;;35.83;5.75;;;;;;;;;;5037212;28;20028;-74
2023/01/05 03:36:59;;;;;;;44.42;4.95;;;;;;;;;;5037175;28;20121;-73
2023/01/05 03:39:27;;;;;;;31.00;4.57;;;;;;;;;;5044438;28;20157;-73
2023/01/05 03:41:53;;;;;;;28.77;6.13;;;;;;;;;;5031096;28;20040;-73
2023/01/05 03:44:19;;;;;;;35.35;5.28;;;;;;;;;;5037374;28;20072;-73
2023/01/05 03:46:46;;;;;;;34.30;4.50;;;;;;;;;;5036973;28;20055;-73
2023/01/05 03:49:12;;;;;;;25.65;5.25;;;;;;;;;;5038173;28;20724;-74
2023/01/05 03:51:38;;;;;;;31.23;5.25;;;;;;;;;;5045436;28;20450;-73
2023/01/05 03:54:05;;;;;;;27.75;5.25;;;;;;;;;;5066224;28;20050;-73
2023/01/05 03:56:31;;;;;;;34.33;5.63;;;;;;;;;;5062149;28;20036;-74
2023/01/05 03:58:57;;;;;;;37.70;4.43;;;;;;;;;;5058244;28;20071;-73
2023/01/05 04:01:23;;;;;;;35.88;4.93;;;;;;;;;;5056830;28;20048;-73
2023/01/05 04:03:49;;;;;;;35.28;5.00;;;;;;;;;;5034802;28;20063;-73
2023/01/05 04:06:15;;;;;;;33.53;5.18;;;;;;;;;;5037203;28;20041;-73
2023/01/05 04:08:41;;;;;;;28.75;5.25;;;;;;;;;;5034370;28;20051;-73
2023/01/05 04:11:15;;;;;;;40.13;6.43;;;;;;;;;;5022218;28;20739;-73
2023/01/05 04:13:41;;;;;;;36.38;5.35;;;;;;;;;;5033298;28;20036;-73
2023/01/05 04:16:08;;;;;;;31.17;5.30;;;;;;;;;;5033964;28;20123;-73
2023/01/05 04:18:34;;;;;;;36.13;5.45;;;;;;;;;;5054953;28;20075;-74
2023/01/05 04:21:00;;;;;;;32.85;4.53;;;;;;;;;;5055485;28;20444;-74
2023/01/05 04:23:26;;;;;;;28.08;4.53;;;;;;;;;;5038008;28;20040;-74
2023/01/05 04:25:52;;;;;;;41.45;4.40;;;;;;;;;;5039897;28;20499;-74
2023/01/05 04:28:18;;;;;;;37.05;5.00;;;;;;;;;;5040581;28;20082;-74
2023/01/05 04:30:45;;;;;;;35.85;5.20;;;;;;;;;;5037801;28;20054;-74
2023/01/05 04:33:11;;;;;;;43.75;6.28;;;;;;;;;;5054306;28;20036;-74
2023/01/05 04:35:37;;;;;;;28.75;4.30;;;;;;;;;;5039778;28;20063;-74
2023/01/05 04:38:03;;;;;;;33.97;5.03;;;;;;;;;;5038656;28;20127;-74
2023/01/05 04:40:29;;;;;;;37.40;5.57;;;;;;;;;;5057275;28;20047;-74
2023/01/05 04:42:55;;;;;;;30.92;4.95;;;;;;;;;;5021861;28;20047;-74
2023/01/05 04:45:21;;;;;;;37.08;5.22;;;;;;;;;;5039171;28;20051;-74
2023/01/05 04:47:47;;;;;;;41.22;5.90;;;;;;;;;;5056520;28;20313;-74
2023/01/05 04:50:13;;;;;;;42.05;5.38;;;;;;;;;;5036442;28;20447;-73
2023/01/05 04:52:39;;;;;;;36.13;5.30;;;;;;;;;;5038349;28;21424;-74
2023/01/05 04:55:06;;;;;;;47.70;5.65;;;;;;;;;;5055997;28;20036;-73
2023/01/05 04:57:32;;;;;;;33.92;5.30;;;;;;;;;;5056545;28;20403;-74
2023/01/05 04:59:58;;;;;;;32.88;5.20;;;;;;;;;;5035712;28;20480;-74
2023/01/05 05:02:24;;;;;;;32.92;5.28;;;;;;;;;;5042777;28;20090;-74
2023/01/05 05:04:50;;;;;;;42.22;5.47;;;;;;;;;;5034455;28;20097;-74
2023/01/05 05:07:16;;;;;;;42.38;6.53;;;;;;;;;;5031213;28;20052;-75
2023/01/05 05:09:45;;;;;;;30.30;5.22;;;;;;;;;;5035930;28;20369;-74
2023/01/05 05:12:12;;;;;;;41.55;6.45;;;;;;;;;;5057717;28;20040;-74
2023/01/05 05:14:38;;;;;;;36.78;4.90;;;;;;;;;;5052858;28;20056;-74
2023/01/05 05:17:04;;;;;;;43.80;7.30;;;;;;;;;;5054675;28;20040;-74
2023/01/05 05:19:31;;;;;;;36.13;4.72;;;;;;;;;;5040599;28;20036;-74
2023/01/05 05:21:57;;;;;;;33.00;4.55;;;;;;;;;;5035372;28;20145;-74
2023/01/05 05:24:23;;;;;;;39.35;5.97;;;;;;;;;;5019827;28;20051;-74
2023/01/05 05:26:49;;;;;;;32.72;4.65;;;;;;;;;;5055779;28;20037;-74
2023/01/05 05:29:15;;;;;;;30.30;5.28;;;;;;;;;;5041959;28;20185;-74
2023/01/05 05:31:41;;;;;;;38.15;7.38;;;;;;;;;;5040971;28;20179;-73
2023/01/05 05:34:07;;;;;;;51.67;6.13;;;;;;;;;;5064717;28;20036;-74
2023/01/05 05:36:37;;;;;;;24.25;4.40;;;;;;;;;;5064497;28;20097;-74
2023/01/05 05:39:03;;;;;;;39.97;6.22;;;;;;;;;;5077417;28;20047;-73
2023/01/05 05:41:29;;;;;;;36.92;5.00;;;;;;;;;;5076763;28;20032;-74
2023/01/05 05:43:59;;;;;;;40.85;4.65;;;;;;;;;;5040394;28;20133;-74
2023/01/05 05:46:26;;;;;;;41.00;6.15;;;;;;;;;;5057642;28;20657;-73
2023/01/05 05:48:52;;;;;;;34.42;4.45;;;;;;;;;;5057346;28;20031;-74
2023/01/05 05:51:18;;;;;;;48.42;6.82;;;;;;;;;;5018152;28;20059;-74
2023/01/05 05:53:44;;;;;;;27.50;4.82;;;;;;;;;;5053116;28;20101;-74
2023/01/05 05:56:10;;;;;;;46.58;6.70;;;;;;;;;;5052678;28;20480;-73
2023/01/05 05:58:36;;;;;;;32.45;5.68;;;;;;;;;;5055956;28;20415;-73
2023/01/05 06:01:03;;;;;;;43.90;6.68;;;;;;;;;;5038010;28;20080;-74
2023/01/05 06:03:29;;;;;;;51.25;6.45;;;;;;;;;;5041667;28;20461;-74
2023/01/05 06:05:55;;;;;;;43.13;7.63;;;;;;;;;;5037951;28;20033;-74
2023/01/05 06:08:21;;;;;;;44.92;7.07;;;;;;;;;;5024432;28;20075;-74
2023/01/05 06:10:48;;;;;;;47.35;7.10;;;;;;;;;;5039635;28;20119;-74
2023/01/05 06:13:14;;;;;;;38.40;6.53;;;;;;;;;;5028624;28;20040;-73
2023/01/05 06:15:40;;;;;;;50.72;8.13;;;;;;;;;;5027996;28;20052;-74
2023/01/05 06:18:06;;;;;;;41.58;7.90;;;;;;;;;;5040449;28;20036;-74
2023/01/05 06:20:32;;;;;;;51.83;6.97;;;;;;;;;;5025404;28;20036;-75
2023/01/05 06:22:58;;;;;;;53.20;7.43;;;;;;;;;;5037924;28;20123;-75
2023/01/05 06:25:24;;;;;;;59.35;7.38;;;;;;;;;;5042496;28;20170;-74
2023/01/05 06:27:50;;;;;;;40.20;6.18;;;;;;;;;;5056793;28;20055;-75
2023/01/05 06:30:16;;;;;;;50.58;6.35;;;;;;;;;;5035533;28;20043;-74
2023/01/05 06:32:43;;;;;;;43.72;7.50;;;;;;;;;;5033562;28;20063;-74
2023/01/05 06:35:09;;;;;;;54.45;7.05;;;;;;;;;;5056381;28;20089;-75
2023/01/05 06:37:35;;;;;;;54.70;6.60;;;;;;;;;;5018797;28;20105;-75
2023/01/05 06:40:01;;;;;;;59.95;8.38;;;;;;;;;;5014481;28;20044;-75
2023/01/05 06:42:27;;;;;;;52.70;9.15;;;;;;;;;;5028750;28;20807;-75
2023/01/05 06:44:53;;;;;;;56.08;7.75;;;;;;;;;;5033464;28;20093;-75
2023/01/05 06:47:19;;;;;;;43.38;7.30;;;;;;;;;;5014722;28;20201;-75
2023/01/05 06:49:45;;;;;;;59.15;8.10;;;;;;;;;;5034511;28;20048;-75
2023/01/05 06:52:13;;;;;;;50.53;7.25;;;;;;;;;;5039863;28;20063;-75
2023/01/05 06:54:39;;;;;;;41.67;7.07;;;;;;;;;;5047952;28;20048;-75
2023/01/05 06:57:05;;;;;;;50.92;6.95;;;;;;;;;;5049533;28;20041;-76
2023/01/05 06:59:32;;;;;;;51.85;8.02;;;;;;;;;;5013911;28;20044;-76
2023/01/05 07:01:58;;;;;;;47.00;6.72;;;;;;;;;;5017917;28;20040;-76
2023/01/05 07:04:24;;;;;;;59.35;8.07;;;;;;;;;;5050686;28;20404;-76
2023/01/05 07:06:50;;;;;;;52.95;6.82;;;;;;;;;;5018060;28;20360;-75
2023/01/05 07:09:16;;;;;;;64.25;7.82;;;;;;;;;;5034406;28;20083;-76
2023/01/05 07:11:42;;;;;;;58.65;7.57;;;;;;;;;;5035045;28;20273;-75
2023/01/05 07:14:08;;;;;;;42.10;6.07;;;;;;;;;;5036142;28;20044;-75
2023/01/05 07:16:34;;;;;;;39.25;4.97;;;;;;;;;;5044937;28;20094;-75
2023/01/05 07:19:00;;;;;;;31.17;4.95;;;;;;;;;;5045314;28;20052;-75
2023/01/05 07:21:26;;;;;;;25.85;4.63;;;;;;;;;;5057969;28;20943;-75
2023/01/05 07:23:52;;;;;;;32.35;4.43;;;;;;;;;;5031997;28;20040;-75
2023/01/05 07:26:18;;;;;;;31.42;5.15;;;;;;;;;;5028637;28;20431;-75
2023/01/05 07:28:44;;;;;;;29.92;4.53;;;;;;;;;;5047120;28;20193;-75
2023/01/05 07:31:10;;;;;;;23.48;3.85;;;;;;;;;;5030610;28;20066;-75
2023/01/05 07:33:37;;;;;;;24.45;4.10;;;;;;;;;;5029082;28;20094;-75
2023/01/05 07:36:03;;;;;;;24.55;4.45;;;;;;;;;;5047958;28;20043;-75
2023/01/05 07:38:31;;;;;;;22.48;5.10;;;;;;;;;;5026287;28;20727;-75
2023/01/05 07:41:00;;;;;;;21.85;5.13;;;;;;;;;;5016661;28;20549;-74
2023/01/05 07:43:26;;;;;;;27.70;4.47;;;;;;;;;;5031378;28;23548;-74
2023/01/05 07:45:56;;;;;;;26.15;5.30;;;;;;;;;;5046485;28;20041;-74
2023/01/05 07:48:22;;;;;;;22.48;4.72;;;;;;;;;;5029038;28;20036;-74
2023/01/05 07:50:48;;;;;;;27.38;5.60;;;;;;;;;;5028846;28;20488;-74
2023/01/05 07:53:14;;;;;;;31.65;6.25;;;;;;;;;;5048505;28;20040;-74
2023/01/05 07:55:40;;;;;;;33.08;5.97;;;;;;;;;;5016179;28;20105;-74
2023/01/05 07:58:06;;;;;;;26.50;3.90;;;;;;;;;;5049871;28;20573;-74
2023/01/05 08:00:32;;;;;;;18.67;2.60;;;;;;;;;;5050661;28;20183;-74
2023/01/05 08:02:59;;;;;;;19.85;2.40;;;;;;;;;;5035158;28;20496;-74
2023/01/05 08:05:29;;;;;;;11.68;1.95;;;;;;;;;;5047228;28;20598;-74
2023/01/05 08:07:55;;;;;;;15.18;2.00;;;;;;;;;;5029833;28;20048;-75
2023/01/05 08:10:27;;;;;;;11.52;2.08;;;;;;;;;;5037835;28;20404;-74
2023/01/05 08:15:38;;;;;;;5.15;1.20;;;;;;;;;;5021850;28;20537;-75
2023/01/05 08:18:04;;;;;;;13.23;1.38;;;;;;;;;;5052676;28;20039;-74
2023/01/05 08:20:30;;;;;;;7.22;1.67;;;;;;;;;;5034658;28;20055;-73
2023/01/05 08:22:56;;;;;;;4.35;0.90;;;;;;;;;;5037820;28;20841;-74
2023/01/05 08:25:22;;;;;;;6.15;1.33;;;;;;;;;;5034570;28;20048;-73
2023/01/05 08:27:48;;;;;;;5.43;0.88;;;;;;;;;;5037513;28;20452;-73
2023/01/05 08:30:15;;;;;;;5.20;0.80;;;;;;;;;;5036464;28;20389;-73
2023/01/05 08:32:41;;;;;;;10.05;0.82;;;;;;;;;;5037167;28;20110;-73
2023/01/05 08:35:07;;;;;;;8.32;1.08;;;;;;;;;;5034381;28;20044;-73
2023/01/05 08:37:34;;;;;;;4.20;0.82;;;;;;;;;;5035256;28;20487;-73
2023/01/05 08:40:00;;;;;;;6.82;1.00;;;;;;;;;;5053733;28;20114;-72
2023/01/05 08:42:26;;;;;;;5.57;1.10;;;;;;;;;;5048082;28;20082;-73
2023/01/05 08:44:52;;;;;;;11.70;1.48;;;;;;;;;;5052636;28;20045;-73
2023/01/05 08:47:18;;;;;;;8.50;1.33;;;;;;;;;;5030181;28;20588;-72
2023/01/05 08:49:44;;;;;;;8.73;1.58;;;;;;;;;;5048747;28;20415;-73
2023/01/05 08:52:10;;;;;;;12.40;1.77;;;;;;;;;;5020267;28;20599;-73
2023/01/05 08:54:36;;;;;;;14.15;1.60;;;;;;;;;;5037811;28;20040;-73
2023/01/05 08:57:02;;;;;;;11.35;1.50;;;;;;;;;;5078477;28;20039;-74
2023/01/05 08:59:28;;;;;;;17.45;2.00;;;;;;;;;;5054835;28;20037;-69
2023/01/05 09:01:54;;;;;;;8.02;1.50;;;;;;;;;;5050334;28;20036;-74
2023/01/05 09:04:20;;;;;;;9.00;1.75;;;;;;;;;;5016573;28;20040;-73
2023/01/05 09:06:46;;;;;;;10.00;1.95;;;;;;;;;;5048317;28;20048;-74
2023/01/05 09:09:14;;;;;;;8.60;2.03;;;;;;;;;;5047389;28;20048;-73
2023/01/05 09:11:40;;;;;;;20.75;3.78;;;;;;;;;;5048945;28;20040;-73
2023/01/05 09:14:06;;;;;;;21.77;2.10;;;;;;;;;;5048686;28;20079;-73
2023/01/05 09:16:33;;;;;;;19.30;2.20;;;;;;;;;;5050015;28;20496;-73
2023/01/05 09:19:01;;;;;;;23.65;2.25;;;;;;;;;;5029394;28;20634;-73
2023/01/05 09:21:30;;;;;;;34.28;3.60;;;;;;;;;;5031396;28;20189;-73
2023/01/05 09:23:57;;;;;;;15.98;2.30;;;;;;;;;;5012698;28;20059;-73
2023/01/05 09:26:23;;;;;;;18.23;2.60;;;;;;;;;;5029740;28;20080;-73
2023/01/05 09:28:49;;;;;;;47.90;5.20;;;;;;;;;;5050781;28;20078;-72
2023/01/05 09:31:16;;;;;;;17.33;2.30;;;;;;;;;;5037992;28;20159;-73
2023/01/05 09:33:43;;;;;;;20.08;3.67;;;;;;;;;;5033029;28;20036;-73
2023/01/05 09:36:09;;;;;;;17.88;2.55;;;;;;;;;;5052336;28;20063;-72
2023/01/05 09:38:36;;;;;;;30.38;3.78;;;;;;;;;;5012518;28;20043;-72
2023/01/05 09:41:08;;;;;;;19.45;2.70;;;;;;;;;;5031070;28;20175;-73
2023/01/05 09:43:36;;;;;;;20.85;2.50;;;;;;;;;;5048693;28;20634;-72
2023/01/05 09:46:04;;;;;;;17.73;2.55;;;;;;;;;;5027603;28;20047;-72
2023/01/05 09:48:35;;;;;;;35.58;3.83;;;;;;;;;;5049845;28;20337;-73
2023/01/05 09:51:01;;;;;;;26.38;4.85;;;;;;;;;;5016368;28;20054;-73
2023/01/05 09:53:29;;;;;;;27.38;4.60;;;;;;;;;;5029685;28;20062;-76
2023/01/05 09:55:55;;;;;;;34.13;4.53;;;;;;;;;;5031716;28;20040;-76
2023/01/05 09:58:23;;;;;;;25.65;5.15;;;;;;;;;;5029494;28;20063;-76
2023/01/05 10:01:00;;;;;;;34.15;3.50;;;;;;;;;;5035632;28;20399;-76
2023/01/05 10:03:27;;;;;;;27.92;4.30;;;;;;;;;;5031972;28;20036;-75
2023/01/05 10:05:53;;;;;;;26.75;3.75;;;;;;;;;;5049102;28;20496;-76
2023/01/05 10:08:24;;;;;;;26.73;3.85;;;;;;;;;;5031466;28;20075;-76
2023/01/05 10:13:42;;;;;;;26.02;3.40;;;;;;;;;;4986049;28;20072;-76
2023/01/05 10:16:13;;;;;;;19.38;2.80;;;;;;;;;;5019935;28;20052;-76
2023/01/05 10:18:40;;;;;;;20.63;3.45;;;;;;;;;;5034588;28;20054;-76
2023/01/05 10:21:13;;;;;;;26.10;3.20;;;;;;;;;;5007260;28;20429;-76
2023/01/05 10:23:54;;;;;;;31.77;3.90;;;;;;;;;;5033717;28;20044;-76
2023/01/05 10:26:25;;;;;;;22.58;2.88;;;;;;;;;;5015755;28;20044;-76
2023/01/05 10:29:09;;;;;;;20.50;2.50;;;;;;;;;;5033320;28;20037;-75
2023/01/05 10:31:42;;;;;;;14.45;1.77;;;;;;;;;;5042043;28;20108;-76
2023/01/05 10:34:21;;;;;;;17.60;3.72;;;;;;;;;;5065510;28;20049;-75
2023/01/05 10:36:59;;;;;;;15.40;3.35;;;;;;;;;;5068406;28;20063;-76
2023/01/05 10:39:44;;;;;;;16.30;4.43;;;;;;;;;;5057276;28;20075;-76
2023/01/05 10:42:10;;;;;;;16.60;1.88;;;;;;;;;;5029929;28;20075;-76
2023/01/05 10:44:44;;;;;;;10.13;1.63;;;;;;;;;;5046737;28;20149;-76
2023/01/05 10:47:10;;;;;;;;;;;;;;;;;;5035966;28;20634;-76
2023/01/05 10:49:37;;;;;;;16.63;2.13;;;;;;;;;;5028785;28;20001;-75
2023/01/05 10:52:03;;;;;;;11.98;2.75;;;;;;;;;;5028567;28;20040;-75
2023/01/05 10:54:35;;;;;;;10.45;2.00;;;;;;;;;;5028331;28;20047;-75
2023/01/05 10:57:20;;;;;;;14.95;2.20;;;;;;;;;;5031538;28;20468;-75
2023/01/05 10:59:57;;;;;;;15.57;2.00;;;;;;;;;;5031562;28;20067;-78
2023/01/05 11:02:24;;;;;;;20.63;3.17;;;;;;;;;;5031272;28;20040;-76
2023/01/05 11:04:51;;;;;;;11.60;1.77;;;;;;;;;;5033920;28;20063;-75
2023/01/05 11:07:18;;;;;;;6.78;1.45;;;;;;;;;;5015327;28;20047;-76
2023/01/05 11:09:46;;;;;;;16.08;1.98;;;;;;;;;;5030612;28;20135;-77
2023/01/05 11:12:17;;;;;;;7.75;1.65;;;;;;;;;;5033890;28;20131;-76
2023/01/05 11:14:47;;;;;;;8.27;1.67;;;;;;;;;;5031503;28;20093;-77
2023/01/05 11:17:18;;;;;;;19.40;2.40;;;;;;;;;;5044109;28;20345;-75
2023/01/05 11:19:45;;;;;;;10.82;1.98;;;;;;;;;;5026539;28;20082;-75
2023/01/05 11:22:35;;;;;;;12.20;1.98;;;;;;;;;;5017197;28;20090;-75
2023/01/05 11:25:20;;;;;;;11.25;1.70;;;;;;;;;;5005933;28;20056;-79
2023/01/05 11:27:46;;;;;;;14.77;2.38;;;;;;;;;;5034663;28;20397;-76
2023/01/05 11:30:15;;;;;;;11.52;1.50;;;;;;;;;;5036051;28;20084;-75
2023/01/05 11:32:42;;;;;;;14.90;2.55;;;;;;;;;;5031603;28;20040;-75
2023/01/05 11:35:24;;;;;;;13.77;1.60;;;;;;;;;;5038173;28;20068;-75
2023/01/05 11:37:51;;;;;;;10.48;1.45;;;;;;;;;;5037146;28;20068;-76
2023/01/05 11:40:18;;;;;;;16.13;2.25;;;;;;;;;;5039095;28;20089;-76
2023/01/05 11:42:45;;;;;;;24.40;2.20;;;;;;;;;;5026664;28;20443;-76
2023/01/05 11:45:19;;;;;;;15.18;2.25;;;;;;;;;;5037732;28;20424;-76
2023/01/05 11:47:50;;;;;;;10.07;1.70;;;;;;;;;;5036832;28;20052;-76
2023/01/05 11:50:20;;;;;;;9.65;1.73;;;;;;;;;;5036004;28;20051;-75
2023/01/05 11:52:52;;;;;;;12.07;1.90;;;;;;;;;;5035518;28;20044;-75
2023/01/05 11:55:26;;;;;;;9.48;2.00;;;;;;;;;;5037502;28;20062;-76
2023/01/05 11:57:53;;;;;;;12.55;2.20;;;;;;;;;;5042783;28;20049;-81
2023/01/05 12:00:24;;;;;;;12.60;2.50;;;;;;;;;;5037486;28;20309;-72
2023/01/05 12:02:50;;;;;;;12.18;1.88;;;;;;;;;;5055277;28;20204;-72
2023/01/05 12:05:16;;;;;;;15.15;2.38;;;;;;;;;;5038069;28;20040;-72
2023/01/05 12:07:52;;;;;;;24.15;3.60;;;;;;;;;;5052231;28;20370;-72
2023/01/05 12:10:24;;;;;;;15.68;2.72;;;;;;;;;;5058721;28;20127;-71
2023/01/05 12:13:02;;;;;;;9.05;2.15;;;;;;;;;;5037916;28;20097;-72
2023/01/05 12:15:41;;;;;;;14.25;2.20;;;;;;;;;;5056450;28;20062;-72
2023/01/05 12:18:07;;;;;;;12.70;2.45;;;;;;;;;;5082906;28;20519;-71
2023/01/05 12:20:54;;;;;;;17.63;2.60;;;;;;;;;;5064165;28;20157;-71
2023/01/05 12:23:39;;;;;;;20.05;3.28;;;;;;;;;;5054474;28;20544;-73
2023/01/05 12:26:24;;;;;;;24.75;3.13;;;;;;;;;;5018405;28;20051;-73
2023/01/05 12:29:12;;;;;;;24.27;3.55;;;;;;;;;;5056070;28;20048;-72
2023/01/05 12:31:57;;;;;;;13.50;2.65;;;;;;;;;;5055155;28;20126;-73
2023/01/05 12:34:38;;;;;;;22.55;3.42;;;;;;;;;;5037414;28;20141;-72
2023/01/05 12:37:04;;;;;;;14.07;2.95;;;;;;;;;;5034669;28;20040;-71
2023/01/05 12:39:51;;;;;;;18.83;3.63;;;;;;;;;;5037179;28;20122;-72
2023/01/05 12:42:17;;;;;;;25.88;3.33;;;;;;;;;;5050979;28;20121;-72
2023/01/05 12:44:55;;;;;;;16.95;3.42;;;;;;;;;;5052279;28;20500;-72
2023/01/05 12:47:30;;;;;;;18.73;2.95;;;;;;;;;;5037546;28;20377;-72
2023/01/05 12:50:15;;;;;;;16.45;2.75;;;;;;;;;;5034590;28;20131;-70
2023/01/05 12:52:44;;;;;;;15.30;2.30;;;;;;;;;;5056336;28;20822;-71
2023/01/05 12:55:11;;;;;;;21.02;2.42;;;;;;;;;;5054159;28;20043;-72
2023/01/05 12:57:44;;;;;;;14.25;2.28;;;;;;;;;;5036525;28;20189;-72
2023/01/05 13:00:10;;;;;;;8.15;2.30;;;;;;;;;;5018353;28;20400;-72
2023/01/05 13:02:52;;;;;;;16.70;4.10;;;;;;;;;;5055436;28;20052;-73
2023/01/05 13:05:27;;;;;;;20.27;3.60;;;;;;;;;;5026207;28;20039;-71
2023/01/05 13:07:55;;;;;;;18.77;3.08;;;;;;;;;;5036282;28;20067;-71
2023/01/05 13:10:33;;;;;;;9.27;2.13;;;;;;;;;;5036337;28;20044;-72
2023/01/05 13:13:03;;;;;;;15.90;3.30;;;;;;;;;;5039198;28;20718;-72
2023/01/05 13:15:32;;;;;;;13.32;2.38;;;;;;;;;;5021046;28;20055;-72
2023/01/05 13:17:59;;;;;;;20.10;2.80;;;;;;;;;;5051740;28;20484;-72
2023/01/05 13:20:38;;;;;;;10.73;1.90;;;;;;;;;;5053053;28;21251;-71
2023/01/05 13:23:05;;;;;;;19.30;2.63;;;;;;;;;;5053104;28;20127;-71
2023/01/05 13:25:45;;;;;;;13.82;2.40;;;;;;;;;;5034773;28;20129;-71
2023/01/05 13:28:18;;;;;;;14.65;2.25;;;;;;;;;;5033714;28;20300;-71
2023/01/05 13:30:51;;;;;;;19.35;2.50;;;;;;;;;;5048248;28;20425;-72
2023/01/05 13:33:47;;;;;;;18.37;2.60;;;;;;;;;;5051288;28;21564;-71
2023/01/05 13:36:25;;;;;;;12.00;2.20;;;;;;;;;;4977479;28;21041;-72
2023/01/05 13:38:54;;;;;;;19.40;2.30;;;;;;;;;;5033138;28;21646;-72
2023/01/05 13:41:23;;;;;;;7.60;1.73;;;;;;;;;;5031674;28;20664;-72
2023/01/05 13:44:03;;;;;;;9.48;1.95;;;;;;;;;;5035900;28;20518;-72
2023/01/05 13:46:35;;;;;;;14.13;2.03;;;;;;;;;;5034197;28;20052;-71
2023/01/05 13:49:04;;;;;;;15.80;2.60;;;;;;;;;;5014967;28;20036;-71
2023/01/05 13:51:39;;;;;;;18.65;2.75;;;;;;;;;;5027175;28;20040;-71
2023/01/05 13:54:09;;;;;;;10.85;2.30;;;;;;;;;;5047133;28;20058;-71
2023/01/05 13:56:37;;;;;;;16.88;2.83;;;;;;;;;;5032577;28;20135;-71
2023/01/05 13:59:05;;;;;;;16.73;2.42;;;;;;;;;;5078904;28;21294;-71
2023/01/05 14:01:41;;;;;;;16.85;3.17;;;;;;;;;;5061578;28;20020;-71
2023/01/05 14:04:21;;;;;;;20.27;2.85;;;;;;;;;;5045370;28;20063;-71
2023/01/05 14:06:49;;;;;;;20.38;4.15;;;;;;;;;;5045246;28;20189;-71
2023/01/05 14:09:17;;;;;;;25.63;3.78;;;;;;;;;;5048991;28;20167;-72
2023/01/05 14:12:02;;;;;;;13.82;2.88;;;;;;;;;;5047439;28;21951;-71
2023/01/05 14:14:48;;;;;;;19.45;3.28;;;;;;;;;;5050504;28;20111;-72
2023/01/05 14:17:34;;;;;;;23.20;4.05;;;;;;;;;;5028256;28;20583;-72
2023/01/05 14:20:00;;;;;;;17.85;3.00;;;;;;;;;;5045509;28;20690;-72
2023/01/05 14:22:36;;;;;;;17.15;3.28;;;;;;;;;;5044984;28;20090;-72
2023/01/05 14:25:23;;;;;;;27.17;3.63;;;;;;;;;;5030939;28;20661;-72
2023/01/05 14:28:09;;;;;;;20.42;4.43;;;;;;;;;;4998626;28;20095;-72
2023/01/05 14:30:35;;;;;;;23.55;4.22;;;;;;;;;;5047551;28;20106;-75
2023/01/05 14:33:05;;;;;;;25.05;5.35;;;;;;;;;;5010689;28;21330;-76
2023/01/05 14:35:33;;;;;;;30.38;4.53;;;;;;;;;;5029915;28;20044;-76
2023/01/05 14:38:00;;;;;;;37.78;4.70;;;;;;;;;;5028408;28;20532;-76
2023/01/05 14:40:37;;;;;;;33.00;5.97;;;;;;;;;;5027223;28;20066;-76
2023/01/05 14:43:05;;;;;;;19.98;3.95;;;;;;;;;;5028256;28;20088;-76
2023/01/05 14:45:33;;;;;;;28.23;4.78;;;;;;;;;;5030622;28;20044;-76
2023/01/05 14:48:06;;;;;;;28.08;5.22;;;;;;;;;;5030670;28;20044;-76
2023/01/05 14:50:32;;;;;;;22.98;4.65;;;;;;;;;;5029536;28;20633;-76
2023/01/05 14:53:34;;;;;;;24.13;3.78;;;;;;;;;;5034284;28;20048;-75
2023/01/05 14:56:00;;;;;;;24.65;3.95;;;;;;;;;;5038384;28;20492;-75
2023/01/05 14:58:35;;;;;;;24.17;3.97;;;;;;;;;;5030270;28;20055;-75
2023/01/05 15:01:04;;;;;;;31.38;4.93;;;;;;;;;;5033787;28;20649;-75
2023/01/05 15:03:47;;;;;;;26.33;5.05;;;;;;;;;;5029324;28;20089;-75
2023/01/05 15:06:17;;;;;;;27.20;5.00;;;;;;;;;;5026775;28;20151;-76
2023/01/05 15:08:50;;;;;;;29.70;4.28;;;;;;;;;;5019329;28;20558;-76
2023/01/05 15:11:16;;;;;;;25.55;4.47;;;;;;;;;;5027966;28;20158;-76
2023/01/05 15:16:55;;;;;;;26.25;5.03;;;;;;;;;;5047368;28;20039;-76
2023/01/05 15:19:21;;;;;;;23.65;4.15;;;;;;;;;;5048683;28;20032;-76
2023/01/05 15:21:47;;;;;;;22.75;4.07;;;;;;;;;;5027079;28;20079;-76